Time;durP1;ratioP1;P1;durP2;ratioP2;P2;SDS_P1;SDS_P2;PMS_P1;PMS_P2;Temp;Humidity;BMP_temperature;BMP_pressure;BME280_temperature;BME280_humidity;BME280_pressure;Samples;Min_cycle;Max_cycle;Signal;HPM_P1;HPM_P2
2021/01/04 00:01:54;;;;;;;66.68;33.42;;;;;;;;;;5076397;28;20427;-63
2021/01/04 00:04:23;;;;;;;71.68;34.53;;;;;;;;;;5075162;28;20039;-64
2021/01/04 00:07:07;;;;;;;84.97;38.35;;;;;;;;;;5080734;28;20471;-64
2021/01/04 00:09:54;;;;;;;60.08;31.73;;;;;;;;;;5096693;28;20410;-64
2021/01/04 00:12:32;;;;;;;61.75;33.38;;;;;;;;;;5095908;28;20146;-64
2021/01/04 00:15:09;;;;;;;61.25;32.20;;;;;;;;;;5078150;28;20032;-63
2021/01/04 00:17:41;;;;;;;66.38;33.83;;;;;;;;;;5078095;28;20071;-64
2021/01/04 00:20:15;;;;;;;87.03;40.53;;;;;;;;;;5096345;28;20032;-63
2021/01/04 00:22:48;;;;;;;80.28;39.17;;;;;;;;;;5077949;28;20039;-63
2021/01/04 00:25:30;;;;;;;84.90;40.58;;;;;;;;;;5078340;28;20448;-63
2021/01/04 00:28:07;;;;;;;86.53;41.17;;;;;;;;;;5077986;28;20418;-63
2021/01/04 00:30:36;;;;;;;82.68;37.30;;;;;;;;;;5095956;28;20047;-64
2021/01/04 00:33:05;;;;;;;73.63;36.00;;;;;;;;;;5077961;28;20028;-64
2021/01/04 00:35:31;;;;;;;63.65;33.17;;;;;;;;;;5095913;28;20032;-64
2021/01/04 00:38:15;;;;;;;60.28;33.17;;;;;;;;;;5078002;28;20023;-64
2021/01/04 00:40:53;;;;;;;63.53;31.75;;;;;;;;;;5096015;28;20049;-64
2021/01/04 00:43:39;;;;;;;59.95;31.60;;;;;;;;;;5095718;28;20103;-64
2021/01/04 00:46:05;;;;;;;56.30;30.50;;;;;;;;;;5095405;28;20505;-64
2021/01/04 00:48:33;;;;;;;52.38;30.70;;;;;;;;;;5095833;28;20036;-64
2021/01/04 00:51:17;;;;;;;52.60;29.20;;;;;;;;;;5095315;28;20466;-64
2021/01/04 00:53:44;;;;;;;50.33;28.35;;;;;;;;;;5093077;28;20051;-64
2021/01/04 00:56:21;;;;;;;47.65;26.83;;;;;;;;;;5095394;28;20039;-64
2021/01/04 00:59:06;;;;;;;60.05;30.38;;;;;;;;;;5095463;28;20074;-64
2021/01/04 01:01:44;;;;;;;67.90;34.13;;;;;;;;;;5077339;28;20105;-63
2021/01/04 01:04:12;;;;;;;57.92;32.85;;;;;;;;;;5095207;28;20113;-63
2021/01/04 01:06:41;;;;;;;60.22;31.92;;;;;;;;;;5095652;28;20024;-63
2021/01/04 01:09:07;;;;;;;59.33;31.35;;;;;;;;;;5095329;28;20028;-63
2021/01/04 01:11:51;;;;;;;58.10;30.38;;;;;;;;;;5094933;28;20103;-63
2021/01/04 01:14:17;;;;;;;51.10;27.45;;;;;;;;;;5076727;28;20036;-63
2021/01/04 01:16:49;;;;;;;48.00;27.88;;;;;;;;;;5095182;28;20031;-63
2021/01/04 01:19:14;;;;;;;50.33;29.27;;;;;;;;;;5095257;28;20035;-63
2021/01/04 01:21:43;;;;;;;56.63;34.72;;;;;;;;;;5094992;28;20024;-63
2021/01/04 01:24:08;;;;;;;52.53;30.80;;;;;;;;;;5077094;28;20044;-63
2021/01/04 01:26:36;;;;;;;44.30;26.30;;;;;;;;;;5076933;28;20024;-63
2021/01/04 01:29:02;;;;;;;48.28;28.00;;;;;;;;;;5094983;28;20370;-64
2021/01/04 01:31:32;;;;;;;47.75;27.33;;;;;;;;;;5076759;28;20123;-64
2021/01/04 01:34:01;;;;;;;47.85;27.27;;;;;;;;;;5094921;28;20387;-64
2021/01/04 01:36:29;;;;;;;50.83;28.20;;;;;;;;;;5094997;28;20031;-64
2021/01/04 01:39:12;;;;;;;46.15;28.02;;;;;;;;;;5094918;28;20039;-63
2021/01/04 01:42:08;;;;;;;48.55;28.55;;;;;;;;;;5094615;28;20374;-63
2021/01/04 01:44:45;;;;;;;47.65;27.05;;;;;;;;;;5076718;28;20035;-64
2021/01/04 01:47:18;;;;;;;50.90;27.30;;;;;;;;;;5076340;28;20035;-64
2021/01/04 01:50:10;;;;;;;47.70;27.35;;;;;;;;;;5094667;28;20040;-63
2021/01/04 01:52:44;;;;;;;44.50;26.55;;;;;;;;;;5072326;28;20036;-63
2021/01/04 01:55:22;;;;;;;43.95;27.92;;;;;;;;;;5094637;28;20032;-63
2021/01/04 01:57:54;;;;;;;38.63;24.08;;;;;;;;;;5094534;28;20028;-63
2021/01/04 02:00:28;;;;;;;39.38;23.63;;;;;;;;;;5076247;28;20415;-63
2021/01/04 02:02:53;;;;;;;39.38;23.38;;;;;;;;;;5075287;28;20054;-63
2021/01/04 02:05:45;;;;;;;40.05;22.15;;;;;;;;;;5076084;28;20115;-63
2021/01/04 02:08:18;;;;;;;39.15;23.23;;;;;;;;;;5068091;28;20600;-63
2021/01/04 02:10:47;;;;;;;42.35;25.05;;;;;;;;;;5073746;28;20080;-63
2021/01/04 02:13:25;;;;;;;40.25;24.90;;;;;;;;;;5073740;28;20483;-63
2021/01/04 02:16:19;;;;;;;44.10;26.05;;;;;;;;;;5073912;28;20038;-63
2021/01/04 02:18:50;;;;;;;40.08;24.52;;;;;;;;;;5068508;28;20047;-63
2021/01/04 02:21:35;;;;;;;45.92;27.45;;;;;;;;;;5073626;28;20040;-63
2021/01/04 02:24:11;;;;;;;45.45;26.45;;;;;;;;;;5073673;28;20041;-63
2021/01/04 02:26:41;;;;;;;42.15;25.50;;;;;;;;;;5072650;28;20064;-62
2021/01/04 02:29:11;;;;;;;43.40;25.33;;;;;;;;;;5072652;28;20102;-62
2021/01/04 02:31:38;;;;;;;42.67;24.95;;;;;;;;;;5073774;28;20450;-63
2021/01/04 02:34:05;;;;;;;42.20;23.08;;;;;;;;;;5073482;28;20015;-63
2021/01/04 02:36:32;;;;;;;39.38;23.85;;;;;;;;;;5073427;28;20090;-63
2021/01/04 02:39:18;;;;;;;39.95;24.27;;;;;;;;;;5073514;28;20020;-63
2021/01/04 02:42:03;;;;;;;42.80;24.13;;;;;;;;;;5072391;28;20544;-63
2021/01/04 02:44:29;;;;;;;50.28;28.30;;;;;;;;;;5073568;28;20078;-63
2021/01/04 02:47:11;;;;;;;57.35;30.10;;;;;;;;;;5073276;28;20024;-63
2021/01/04 02:49:43;;;;;;;50.45;28.55;;;;;;;;;;5073343;28;20068;-63
2021/01/04 02:52:11;;;;;;;41.38;23.85;;;;;;;;;;5055123;28;20048;-64
2021/01/04 02:54:40;;;;;;;51.53;29.48;;;;;;;;;;5073428;28;20060;-63
2021/01/04 02:57:38;;;;;;;54.42;29.48;;;;;;;;;;5073443;28;20033;-63
2021/01/04 03:00:15;;;;;;;57.50;31.38;;;;;;;;;;5060322;28;20051;-63
2021/01/04 03:02:46;;;;;;;53.47;28.83;;;;;;;;;;5073692;28;20064;-63
2021/01/04 03:05:16;;;;;;;48.95;28.60;;;;;;;;;;5073503;28;20048;-63
2021/01/04 03:07:42;;;;;;;49.63;27.65;;;;;;;;;;5073380;28;20518;-63
2021/01/04 03:10:16;;;;;;;49.47;27.85;;;;;;;;;;5073455;28;20394;-63
2021/01/04 03:12:45;;;;;;;44.53;26.00;;;;;;;;;;5073428;28;20170;-63
2021/01/04 03:15:23;;;;;;;45.50;25.08;;;;;;;;;;5076323;28;20078;-64
2021/01/04 03:17:57;;;;;;;43.85;24.00;;;;;;;;;;5077631;28;20033;-64
2021/01/04 03:20:24;;;;;;;39.58;22.17;;;;;;;;;;5077422;28;20146;-64
2021/01/04 03:22:50;;;;;;;42.38;22.23;;;;;;;;;;5077284;28;20115;-63
2021/01/04 03:25:19;;;;;;;40.30;23.08;;;;;;;;;;5077255;28;20040;-63
2021/01/04 03:27:45;;;;;;;44.95;24.60;;;;;;;;;;5077161;28;20050;-62
2021/01/04 03:30:10;;;;;;;42.75;23.65;;;;;;;;;;5076899;28;20527;-63
2021/01/04 03:32:37;;;;;;;39.35;23.45;;;;;;;;;;5075420;28;20020;-63
2021/01/04 03:35:03;;;;;;;40.17;23.00;;;;;;;;;;5075891;28;20402;-63
2021/01/04 03:37:28;;;;;;;40.97;24.70;;;;;;;;;;5075736;28;20029;-63
2021/01/04 03:39:54;;;;;;;47.50;24.58;;;;;;;;;;5076640;28;20040;-63
2021/01/04 03:42:19;;;;;;;47.47;24.27;;;;;;;;;;5075747;28;20115;-63
2021/01/04 03:44:44;;;;;;;43.63;23.70;;;;;;;;;;5076716;28;20041;-63
2021/01/04 03:47:10;;;;;;;47.35;24.55;;;;;;;;;;5075378;28;20035;-63
2021/01/04 03:49:35;;;;;;;46.83;25.08;;;;;;;;;;5076641;28;20063;-63
2021/01/04 03:52:01;;;;;;;44.03;24.27;;;;;;;;;;5076630;28;20044;-63
2021/01/04 03:54:26;;;;;;;43.90;24.25;;;;;;;;;;5076100;28;20563;-63
2021/01/04 03:56:52;;;;;;;45.35;24.08;;;;;;;;;;5076501;28;20127;-62
2021/01/04 03:59:18;;;;;;;44.92;24.67;;;;;;;;;;5076630;28;20450;-63
2021/01/04 04:02:01;;;;;;;45.65;25.05;;;;;;;;;;5076553;28;20458;-63
2021/01/04 04:04:27;;;;;;;45.65;25.00;;;;;;;;;;5076570;28;20445;-63
2021/01/04 04:06:52;;;;;;;49.53;24.73;;;;;;;;;;5076485;28;20112;-63
2021/01/04 04:09:19;;;;;;;44.63;24.05;;;;;;;;;;5075123;28;20032;-63
2021/01/04 04:11:45;;;;;;;44.80;24.60;;;;;;;;;;5076292;28;20120;-63
2021/01/04 04:14:11;;;;;;;47.67;24.27;;;;;;;;;;5076323;28;20439;-63
2021/01/04 04:16:37;;;;;;;44.47;24.10;;;;;;;;;;5076133;28;20020;-63
2021/01/04 04:19:03;;;;;;;45.80;24.40;;;;;;;;;;5058236;28;20076;-63
2021/01/04 04:21:28;;;;;;;72.63;34.88;;;;;;;;;;5074650;28;20097;-74
2021/01/04 04:23:54;;;;;;;178.45;61.45;;;;;;;;;;5074780;28;20037;-73
2021/01/04 04:26:21;;;;;;;595.30;224.00;;;;;;;;;;5074955;28;20029;-74
2021/01/04 04:28:46;;;;;;;528.17;199.98;;;;;;;;;;5075700;28;20506;-73
2021/01/04 04:31:12;;;;;;;375.30;125.35;;;;;;;;;;5075570;28;20032;-72
2021/01/04 04:33:39;;;;;;;321.92;110.55;;;;;;;;;;5074020;28;20079;-72
2021/01/04 04:36:04;;;;;;;228.35;81.78;;;;;;;;;;5075917;28;20032;-73
2021/01/04 04:38:30;;;;;;;134.52;54.58;;;;;;;;;;5075625;28;20480;-73
2021/01/04 04:40:55;;;;;;;116.03;47.45;;;;;;;;;;5075721;28;20041;-73
2021/01/04 04:43:28;;;;;;;114.32;47.88;;;;;;;;;;5075543;28;20509;-73
2021/01/04 04:45:54;;;;;;;112.22;45.47;;;;;;;;;;5085511;28;20492;-72
2021/01/04 04:48:25;;;;;;;104.47;46.05;;;;;;;;;;5077830;28;20028;-72
2021/01/04 04:51:10;;;;;;;124.05;50.72;;;;;;;;;;5077510;28;20032;-73
2021/01/04 04:53:44;;;;;;;117.82;48.00;;;;;;;;;;5096660;28;20047;-72
2021/01/04 04:56:21;;;;;;;107.15;46.75;;;;;;;;;;5093207;28;20114;-72
2021/01/04 04:59:10;;;;;;;123.80;50.75;;;;;;;;;;5080027;28;20028;-73
2021/01/04 05:01:35;;;;;;;113.20;47.90;;;;;;;;;;5075894;28;20070;-73
2021/01/04 05:04:21;;;;;;;109.65;47.05;;;;;;;;;;5094167;28;20055;-73
2021/01/04 05:06:47;;;;;;;105.32;45.08;;;;;;;;;;5061886;28;20089;-73
2021/01/04 05:09:13;;;;;;;98.40;44.08;;;;;;;;;;5076846;28;20032;-73
2021/01/04 05:11:39;;;;;;;100.03;43.63;;;;;;;;;;5076884;28;20028;-72
2021/01/04 05:14:13;;;;;;;95.15;43.50;;;;;;;;;;5095380;28;20020;-73
2021/01/04 05:17:01;;;;;;;96.30;41.75;;;;;;;;;;5095379;28;20032;-73
2021/01/04 05:20:02;;;;;;;87.97;39.63;;;;;;;;;;5084477;28;20040;-73
2021/01/04 05:22:43;;;;;;;91.53;42.75;;;;;;;;;;5073178;28;20028;-73
2021/01/04 05:25:27;;;;;;;97.43;44.60;;;;;;;;;;5076588;28;20105;-73
2021/01/04 05:28:07;;;;;;;84.75;41.63;;;;;;;;;;5075386;28;20427;-73
2021/01/04 05:30:52;;;;;;;62.63;32.03;;;;;;;;;;5094012;28;20028;-72
2021/01/04 05:33:30;;;;;;;43.25;24.92;;;;;;;;;;5094279;28;20051;-72
2021/01/04 05:36:14;;;;;;;40.67;23.92;;;;;;;;;;5076185;28;20036;-72
2021/01/04 05:38:45;;;;;;;47.85;27.27;;;;;;;;;;5094234;28;20063;-73
2021/01/04 05:41:31;;;;;;;45.08;26.13;;;;;;;;;;5094496;28;20036;-73
2021/01/04 05:44:05;;;;;;;46.67;25.58;;;;;;;;;;5072451;28;20051;-73
2021/01/04 05:46:49;;;;;;;51.15;26.65;;;;;;;;;;5094614;28;20532;-73
2021/01/04 05:49:33;;;;;;;48.05;25.92;;;;;;;;;;5076834;28;20086;-73
2021/01/04 05:51:58;;;;;;;46.00;25.50;;;;;;;;;;5076419;28;20405;-73
2021/01/04 05:54:31;;;;;;;44.28;25.58;;;;;;;;;;5094170;28;20082;-73
2021/01/04 05:57:04;;;;;;;47.17;26.30;;;;;;;;;;5093548;28;20028;-73
2021/01/04 05:59:29;;;;;;;42.05;23.23;;;;;;;;;;5094143;28;20036;-73
2021/01/04 06:02:00;;;;;;;46.72;23.55;;;;;;;;;;5094125;28;20033;-73
2021/01/04 06:04:26;;;;;;;54.45;27.02;;;;;;;;;;5094179;28;20102;-73
2021/01/04 06:07:00;;;;;;;49.28;27.20;;;;;;;;;;5075886;28;20105;-73
2021/01/04 06:09:26;;;;;;;44.13;25.77;;;;;;;;;;5094106;28;20036;-73
2021/01/04 06:11:54;;;;;;;50.40;26.45;;;;;;;;;;5094113;28;20036;-73
2021/01/04 06:14:20;;;;;;;50.28;29.00;;;;;;;;;;5094065;28;20089;-72
2021/01/04 06:16:46;;;;;;;56.63;30.60;;;;;;;;;;5093561;28;20027;-73
2021/01/04 06:19:15;;;;;;;59.17;30.63;;;;;;;;;;5075917;28;20498;-73
2021/01/04 06:21:43;;;;;;;51.13;29.73;;;;;;;;;;5093987;28;20044;-73
2021/01/04 06:24:10;;;;;;;52.90;29.75;;;;;;;;;;5093598;28;20051;-72
2021/01/04 06:26:39;;;;;;;29.65;18.77;;;;;;;;;;5093866;28;20089;-73
2021/01/04 06:29:06;;;;;;;33.67;18.67;;;;;;;;;;5093723;28;20040;-73
2021/01/04 06:31:38;;;;;;;54.00;25.88;;;;;;;;;;5075848;28;20062;-73
2021/01/04 06:34:06;;;;;;;109.05;45.50;;;;;;;;;;5093774;28;20097;-72
2021/01/04 06:36:34;;;;;;;85.10;30.42;;;;;;;;;;5094144;28;20020;-73
2021/01/04 06:39:08;;;;;;;92.18;31.92;;;;;;;;;;5093680;28;20070;-73
2021/01/04 06:41:34;;;;;;;56.55;23.52;;;;;;;;;;5058867;28;20059;-73
2021/01/04 06:44:15;;;;;;;58.63;25.30;;;;;;;;;;5075501;28;20039;-72
2021/01/04 06:46:50;;;;;;;46.85;28.48;;;;;;;;;;5093541;28;20390;-72
2021/01/04 06:49:25;;;;;;;110.30;43.42;;;;;;;;;;5075018;28;20430;-73
2021/01/04 06:51:58;;;;;;;131.88;42.20;;;;;;;;;;5093132;28;20048;-72
2021/01/04 06:54:43;;;;;;;136.32;80.60;;;;;;;;;;5090262;28;20036;-72
2021/01/04 06:57:26;;;;;;;134.60;88.50;;;;;;;;;;5093571;28;20493;-72
2021/01/04 07:00:07;;;;;;;72.82;47.72;;;;;;;;;;5093054;28;20488;-72
2021/01/04 07:02:32;;;;;;;;;;;;;;;;;;5075990;28;20059;-72
2021/01/04 07:05:04;;;;;;;89.22;46.80;;;;;;;;;;5075252;28;20366;-72
2021/01/04 07:07:39;;;;;;;77.10;39.03;;;;;;;;;;5075606;28;20154;-72
2021/01/04 07:10:20;;;;;;;62.95;30.63;;;;;;;;;;5092578;28;20036;-72
2021/01/04 07:12:52;;;;;;;49.20;27.48;;;;;;;;;;5092831;28;20482;-72
2021/01/04 07:15:28;;;;;;;51.15;27.30;;;;;;;;;;5093176;28;20033;-72
2021/01/04 07:17:53;;;;;;;54.50;29.27;;;;;;;;;;5074743;28;20032;-72
2021/01/04 07:20:38;;;;;;;58.90;29.73;;;;;;;;;;5074310;28;20057;-72
2021/01/04 07:23:13;;;;;;;65.15;34.95;;;;;;;;;;5093095;28;20040;-72
2021/01/04 07:26:05;;;;;;;80.22;40.60;;;;;;;;;;5093165;28;20071;-73
2021/01/04 07:28:30;;;;;;;81.13;42.08;;;;;;;;;;5073952;28;20176;-72
2021/01/04 07:31:05;;;;;;;98.57;51.67;;;;;;;;;;5092835;28;20115;-73
2021/01/04 07:33:50;;;;;;;98.05;52.10;;;;;;;;;;5093321;28;20531;-73
2021/01/04 07:36:32;;;;;;;86.43;45.58;;;;;;;;;;5092943;28;20119;-73
2021/01/04 07:39:06;;;;;;;71.38;39.65;;;;;;;;;;5093152;28;20094;-73
2021/01/04 07:41:44;;;;;;;52.15;30.80;;;;;;;;;;5093152;28;20064;-73
2021/01/04 07:44:09;;;;;;;44.13;23.52;;;;;;;;;;5093022;28;20032;-73
2021/01/04 07:46:50;;;;;;;42.97;21.95;;;;;;;;;;5092998;28;20047;-72
2021/01/04 07:49:24;;;;;;;48.97;23.00;;;;;;;;;;5092879;28;20028;-72
2021/01/04 07:52:01;;;;;;;79.95;26.08;;;;;;;;;;5092685;28;20128;-72
2021/01/04 07:54:30;;;;;;;87.93;27.55;;;;;;;;;;5073234;28;20044;-72
2021/01/04 07:57:24;;;;;;;89.63;30.60;;;;;;;;;;5091060;28;20031;-73
2021/01/04 08:00:09;;;;;;;86.45;29.45;;;;;;;;;;5073522;28;20032;-73
2021/01/04 08:02:40;;;;;;;92.13;28.58;;;;;;;;;;5095638;28;20043;-73
2021/01/04 08:05:09;;;;;;;70.20;26.95;;;;;;;;;;5077060;28;20032;-73
2021/01/04 08:07:34;;;;;;;69.53;27.42;;;;;;;;;;5095605;28;20023;-73
2021/01/04 08:10:18;;;;;;;80.82;28.00;;;;;;;;;;5078001;28;20402;-73
2021/01/04 08:13:03;;;;;;;86.85;35.03;;;;;;;;;;5077906;28;20032;-73
2021/01/04 08:15:31;;;;;;;120.28;42.78;;;;;;;;;;5095534;28;20063;-73
2021/01/04 08:18:01;;;;;;;129.55;43.40;;;;;;;;;;5095929;28;20540;-73
2021/01/04 08:20:27;;;;;;;81.03;29.98;;;;;;;;;;5077768;28;20379;-73
2021/01/04 08:23:12;;;;;;;72.60;27.23;;;;;;;;;;5095960;28;20115;-73
2021/01/04 08:25:51;;;;;;;47.13;20.08;;;;;;;;;;5095865;28;20500;-73
2021/01/04 08:28:20;;;;;;;46.97;18.55;;;;;;;;;;5077734;28;20124;-73
2021/01/04 08:31:00;;;;;;;31.10;16.17;;;;;;;;;;5095688;28;20028;-73
2021/01/04 08:33:33;;;;;;;33.47;16.48;;;;;;;;;;5077688;28;20374;-73
2021/01/04 08:36:00;;;;;;;31.67;15.98;;;;;;;;;;5077422;28;20036;-73
2021/01/04 08:38:28;;;;;;;27.02;14.63;;;;;;;;;;5095706;28;20039;-72
2021/01/04 08:40:56;;;;;;;30.92;15.43;;;;;;;;;;5095616;28;20035;-73
2021/01/04 08:43:34;;;;;;;71.03;36.40;;;;;;;;;;5077106;28;20032;-72
2021/01/04 08:46:10;;;;;;;88.43;46.55;;;;;;;;;;5084601;28;20086;-73
2021/01/04 08:48:37;;;;;;;32.55;17.83;;;;;;;;;;5091253;28;20048;-73
2021/01/04 08:51:07;;;;;;;142.15;86.32;;;;;;;;;;5084966;28;20119;-73
2021/01/04 08:53:33;;;;;;;66.47;41.92;;;;;;;;;;5062966;28;20033;-73
2021/01/04 08:56:04;;;;;;;69.32;43.83;;;;;;;;;;5061632;28;20040;-73
2021/01/04 08:58:33;;;;;;;36.65;23.77;;;;;;;;;;5055453;28;20091;-73
2021/01/04 09:01:00;;;;;;;88.85;59.35;;;;;;;;;;5074953;28;20353;-73
2021/01/04 09:03:28;;;;;;;92.47;57.85;;;;;;;;;;5075455;28;20531;-73
2021/01/04 09:05:53;;;;;;;38.97;23.42;;;;;;;;;;5071989;28;20367;-73
2021/01/04 09:08:28;;;;;;;15.00;11.00;;;;;;;;;;5059556;28;20051;-73
2021/01/04 09:10:58;;;;;;;19.85;12.82;;;;;;;;;;5064884;28;20476;-72
2021/01/04 09:13:29;;;;;;;20.80;13.30;;;;;;;;;;5086427;28;20044;-72
2021/01/04 09:15:54;;;;;;;;;;;;;;;;;;5075574;28;20024;-72
2021/01/04 09:18:22;;;;;;;28.40;16.77;;;;;;;;;;5075054;28;20375;-72
2021/01/04 09:20:48;;;;;;;25.48;16.80;;;;;;;;;;5074906;28;20187;-72
2021/01/04 09:23:19;;;;;;;30.63;17.25;;;;;;;;;;5074735;28;20542;-74
2021/01/04 09:25:48;;;;;;;36.67;21.77;;;;;;;;;;5074776;28;20036;-73
2021/01/04 09:28:15;;;;;;;64.35;29.92;;;;;;;;;;5074936;28;20021;-73
2021/01/04 09:30:41;;;;;;;62.78;31.73;;;;;;;;;;5073599;28;20440;-72
2021/01/04 09:33:16;;;;;;;59.35;32.50;;;;;;;;;;5070954;28;20166;-73
2021/01/04 09:35:42;;;;;;;48.78;27.15;;;;;;;;;;5065518;28;20056;-73
2021/01/04 09:38:13;;;;;;;47.72;27.38;;;;;;;;;;5054301;28;20407;-73
2021/01/04 09:40:39;;;;;;;50.10;28.15;;;;;;;;;;5052584;28;20033;-73
2021/01/04 09:43:09;;;;;;;54.78;30.95;;;;;;;;;;5054370;28;20033;-73
2021/01/04 09:45:35;;;;;;;45.67;27.35;;;;;;;;;;5053140;28;20379;-72
2021/01/04 09:48:08;;;;;;;48.55;26.95;;;;;;;;;;5054468;28;20025;-72
2021/01/04 09:50:46;;;;;;;40.00;22.65;;;;;;;;;;5054336;28;20187;-72
2021/01/04 09:53:20;;;;;;;36.97;22.13;;;;;;;;;;5058926;28;20048;-72
2021/01/04 09:55:47;;;;;;;38.25;22.20;;;;;;;;;;5074075;28;20036;-72
2021/01/04 09:58:16;;;;;;;38.47;21.75;;;;;;;;;;5074346;28;20037;-72
2021/01/04 10:00:42;;;;;;;36.60;21.83;;;;;;;;;;5076269;28;20402;-72
2021/01/04 10:03:15;;;;;;;47.70;27.13;;;;;;;;;;5082749;28;20033;-72
2021/01/04 10:05:42;;;;;;;43.95;25.45;;;;;;;;;;5056239;28;20055;-72
2021/01/04 10:08:13;;;;;;;38.30;22.55;;;;;;;;;;5074011;28;20033;-72
2021/01/04 10:10:41;;;;;;;34.60;21.25;;;;;;;;;;5055767;28;20064;-72
2021/01/04 10:13:09;;;;;;;78.65;48.38;;;;;;;;;;5073532;28;20116;-72
2021/01/04 10:15:35;;;;;;;44.72;27.95;;;;;;;;;;5073938;28;20037;-72
2021/01/04 10:18:01;;;;;;;69.03;39.78;;;;;;;;;;5073879;28;20090;-72
2021/01/04 10:20:42;;;;;;;57.58;37.75;;;;;;;;;;5072353;28;20041;-72
2021/01/04 10:23:10;;;;;;;33.50;21.58;;;;;;;;;;5088438;28;20052;-72
2021/01/04 10:25:37;;;;;;;30.92;19.10;;;;;;;;;;5093747;28;20028;-72
2021/01/04 10:28:03;;;;;;;38.67;22.05;;;;;;;;;;5093668;28;20433;-72
2021/01/04 10:30:29;;;;;;;30.25;21.83;;;;;;;;;;5093785;28;20032;-72
2021/01/04 10:33:04;;;;;;;29.35;20.65;;;;;;;;;;5075450;28;20394;-72
2021/01/04 10:35:29;;;;;;;27.05;17.40;;;;;;;;;;5075400;28;20028;-71
2021/01/04 10:38:01;;;;;;;28.13;16.50;;;;;;;;;;5093604;28;20471;-71
2021/01/04 10:40:27;;;;;;;27.20;17.40;;;;;;;;;;5093593;28;20487;-71
2021/01/04 10:42:59;;;;;;;27.10;16.35;;;;;;;;;;5093486;28;20031;-71
2021/01/04 10:45:32;;;;;;;26.88;16.63;;;;;;;;;;5093408;28;20042;-71
2021/01/04 10:47:59;;;;;;;26.80;17.25;;;;;;;;;;5093546;28;20047;-71
2021/01/04 10:50:38;;;;;;;30.67;18.38;;;;;;;;;;5092482;28;20055;-61
2021/01/04 10:53:09;;;;;;;29.05;18.13;;;;;;;;;;5093121;28;20036;-71
2021/01/04 10:55:35;;;;;;;;;;;;;;;;;;5094288;28;20032;-71
2021/01/04 10:58:10;;;;;;;26.23;17.67;;;;;;;;;;5075437;28;19910;-71
2021/01/04 11:00:37;;;;;;;29.50;17.55;;;;;;;;;;5093128;28;20367;-71
2021/01/04 11:03:11;;;;;;;32.17;20.98;;;;;;;;;;5093204;28;20063;-71
2021/01/04 11:05:39;;;;;;;33.97;21.48;;;;;;;;;;5093326;28;20044;-72
2021/01/04 11:08:14;;;;;;;31.50;19.30;;;;;;;;;;5092559;28;20111;-71
2021/01/04 11:10:40;;;;;;;30.55;19.05;;;;;;;;;;5091657;28;20473;-62
2021/01/04 11:13:05;;;;;;;35.13;20.90;;;;;;;;;;5091580;28;20039;-62
2021/01/04 11:15:35;;;;;;;35.88;21.48;;;;;;;;;;5093220;28;20036;-62
2021/01/04 11:18:07;;;;;;;21.70;14.95;;;;;;;;;;5074899;28;20124;-62
2021/01/04 11:20:33;;;;;;;20.38;15.00;;;;;;;;;;5093210;28;20040;-62
2021/01/04 11:23:09;;;;;;;23.20;14.35;;;;;;;;;;5093393;28;20062;-63
2021/01/04 11:25:35;;;;;;;26.67;15.50;;;;;;;;;;5093441;28;20459;-62
2021/01/04 11:28:00;;;;;;;22.05;15.32;;;;;;;;;;5093321;28;20035;-63
2021/01/04 11:30:29;;;;;;;27.30;16.27;;;;;;;;;;5074879;28;20454;-62
2021/01/04 11:32:56;;;;;;;26.08;16.75;;;;;;;;;;5093202;28;20028;-62
2021/01/04 11:35:21;;;;;;;28.50;17.15;;;;;;;;;;5096083;28;20032;-62
2021/01/04 11:37:47;;;;;;;23.77;15.18;;;;;;;;;;5079041;28;20028;-62
2021/01/04 11:40:12;;;;;;;27.55;16.20;;;;;;;;;;5097115;28;20040;-63
2021/01/04 11:42:38;;;;;;;28.27;15.43;;;;;;;;;;5096953;28;20085;-62
2021/01/04 11:45:05;;;;;;;24.40;16.05;;;;;;;;;;5096935;28;20047;-63
2021/01/04 11:47:30;;;;;;;33.47;20.10;;;;;;;;;;5096988;28;20028;-62
2021/01/04 11:49:59;;;;;;;28.63;16.60;;;;;;;;;;5095591;28;20036;-63
2021/01/04 11:52:25;;;;;;;23.17;15.05;;;;;;;;;;5077941;28;20416;-62
2021/01/04 11:54:51;;;;;;;23.83;15.23;;;;;;;;;;5095755;28;20142;-62
2021/01/04 11:57:16;;;;;;;21.27;14.90;;;;;;;;;;5096541;28;20386;-62
2021/01/04 11:59:42;;;;;;;21.83;15.18;;;;;;;;;;5096638;28;20032;-71
2021/01/04 12:02:08;;;;;;;16.40;12.88;;;;;;;;;;5096549;28;20111;-71
2021/01/04 12:04:33;;;;;;;20.00;11.93;;;;;;;;;;5096751;28;20032;-71
2021/01/04 12:06:59;;;;;;;21.15;13.98;;;;;;;;;;5096629;28;20028;-72
2021/01/04 12:09:24;;;;;;;21.60;12.70;;;;;;;;;;5096327;28;20036;-63
2021/01/04 12:11:50;;;;;;;23.20;12.68;;;;;;;;;;5096181;28;20028;-63
2021/01/04 12:14:16;;;;;;;18.25;11.27;;;;;;;;;;5096335;28;20474;-63
2021/01/04 12:16:42;;;;;;;15.05;10.52;;;;;;;;;;5096226;28;20023;-63
2021/01/04 12:19:07;;;;;;;23.65;14.73;;;;;;;;;;5077910;28;20036;-63
2021/01/04 12:21:34;;;;;;;42.80;24.92;;;;;;;;;;5095994;28;20385;-63
2021/01/04 12:23:59;;;;;;;14.70;11.23;;;;;;;;;;5096002;28;20032;-62
2021/01/04 12:26:25;;;;;;;17.90;11.90;;;;;;;;;;5096312;28;20036;-62
2021/01/04 12:28:51;;;;;;;16.60;12.88;;;;;;;;;;5078305;28;20496;-62
2021/01/04 12:31:17;;;;;;;27.95;18.52;;;;;;;;;;5061000;28;20028;-63
2021/01/04 12:33:44;;;;;;;136.80;92.43;;;;;;;;;;5095378;28;20488;-62
2021/01/04 12:36:19;;;;;;;28.58;18.40;;;;;;;;;;5095485;28;20390;-62
2021/01/04 12:38:45;;;;;;;30.58;20.42;;;;;;;;;;5096082;28;20028;-62
2021/01/04 12:41:10;;;;;;;21.63;14.32;;;;;;;;;;5096073;28;20028;-63
2021/01/04 12:43:37;;;;;;;18.35;13.45;;;;;;;;;;5078006;28;20090;-62
2021/01/04 12:46:03;;;;;;;23.63;15.38;;;;;;;;;;5076893;28;20028;-63
2021/01/04 12:48:30;;;;;;;23.55;16.98;;;;;;;;;;5095820;28;20063;-63
2021/01/04 12:50:56;;;;;;;23.85;17.75;;;;;;;;;;5095728;28;20043;-62
2021/01/04 12:53:21;;;;;;;26.33;17.40;;;;;;;;;;5094703;28;20044;-63
2021/01/04 12:55:47;;;;;;;32.85;20.25;;;;;;;;;;5095648;28;20032;-63
2021/01/04 12:58:13;;;;;;;31.00;19.40;;;;;;;;;;5077468;28;20534;-63
2021/01/04 13:00:40;;;;;;;29.13;17.88;;;;;;;;;;5095489;28;20413;-63
2021/01/04 13:03:06;;;;;;;18.90;13.07;;;;;;;;;;5077189;28;20367;-63
2021/01/04 13:05:31;;;;;;;19.42;13.50;;;;;;;;;;5095637;28;20031;-62
2021/01/04 13:07:58;;;;;;;20.73;13.30;;;;;;;;;;5095444;28;20036;-63
2021/01/04 13:10:23;;;;;;;19.65;13.00;;;;;;;;;;5094998;28;20028;-62
2021/01/04 13:12:49;;;;;;;22.80;15.07;;;;;;;;;;5095056;28;20032;-62
2021/01/04 13:15:16;;;;;;;23.90;16.00;;;;;;;;;;5095149;28;20028;-62
2021/01/04 13:17:43;;;;;;;21.70;15.60;;;;;;;;;;5095308;28;20093;-63
2021/01/04 13:20:09;;;;;;;23.67;15.18;;;;;;;;;;5095248;28;20066;-63
2021/01/04 13:22:34;;;;;;;41.10;26.98;;;;;;;;;;5095290;28;20055;-63
2021/01/04 13:25:00;;;;;;;35.10;21.08;;;;;;;;;;5095239;28;20032;-63
2021/01/04 13:27:25;;;;;;;25.23;17.25;;;;;;;;;;5077201;28;20383;-64
2021/01/04 13:29:52;;;;;;;23.13;15.25;;;;;;;;;;5095036;28;20103;-62
2021/01/04 13:32:18;;;;;;;23.58;15.07;;;;;;;;;;5094927;28;20044;-62
2021/01/04 13:34:44;;;;;;;21.85;15.88;;;;;;;;;;5094848;28;20028;-63
2021/01/04 13:37:10;;;;;;;26.58;19.02;;;;;;;;;;5094845;28;20081;-63
2021/01/04 13:39:36;;;;;;;25.80;17.02;;;;;;;;;;5094645;28;20028;-62
2021/01/04 13:42:01;;;;;;;28.58;19.00;;;;;;;;;;5076326;28;20040;-62
2021/01/04 13:44:28;;;;;;;21.00;14.70;;;;;;;;;;5094847;28;20032;-62
2021/01/04 13:47:04;;;;;;;28.48;18.50;;;;;;;;;;5094782;28;20148;-62
2021/01/04 13:49:30;;;;;;;30.73;18.88;;;;;;;;;;5076636;28;20043;-63
2021/01/04 13:51:56;;;;;;;37.00;23.73;;;;;;;;;;5094443;28;20111;-63
2021/01/04 13:54:21;;;;;;;73.35;41.83;;;;;;;;;;5093586;28;20120;-63
2021/01/04 13:56:47;;;;;;;68.65;39.78;;;;;;;;;;5093660;28;20035;-63
2021/01/04 13:59:13;;;;;;;58.20;34.63;;;;;;;;;;5092830;28;20024;-63
2021/01/04 14:01:38;;;;;;;384.00;160.65;;;;;;;;;;5075582;28;20024;-62
2021/01/04 14:04:07;;;;;;;208.80;81.90;;;;;;;;;;5093683;28;20044;-62
2021/01/04 14:06:43;;;;;;;404.52;162.55;;;;;;;;;;5093574;28;20032;-63
2021/01/04 14:09:10;;;;;;;170.93;70.93;;;;;;;;;;5075500;28;20106;-63
2021/01/04 14:11:37;;;;;;;278.83;120.75;;;;;;;;;;5093641;28;20039;-62
2021/01/04 14:14:04;;;;;;;170.35;76.70;;;;;;;;;;5075061;28;20509;-63
2021/01/04 14:16:29;;;;;;;207.70;100.65;;;;;;;;;;5093759;28;20024;-63
2021/01/04 14:18:56;;;;;;;210.70;94.60;;;;;;;;;;5093539;28;20034;-63
2021/01/04 14:21:25;;;;;;;149.18;59.83;;;;;;;;;;5093496;28;20115;-63
2021/01/04 14:23:51;;;;;;;150.90;63.30;;;;;;;;;;5093624;28;20448;-63
2021/01/04 14:26:20;;;;;;;110.03;48.20;;;;;;;;;;5093537;28;20036;-63
2021/01/04 14:28:46;;;;;;;108.88;42.92;;;;;;;;;;5093495;28;20119;-62
2021/01/04 14:31:12;;;;;;;149.60;72.85;;;;;;;;;;5075223;28;20067;-62
2021/01/04 14:33:37;;;;;;;84.72;41.67;;;;;;;;;;5093323;28;20371;-63
2021/01/04 14:36:03;;;;;;;169.82;79.15;;;;;;;;;;5093149;28;20035;-62
2021/01/04 14:38:34;;;;;;;94.80;47.28;;;;;;;;;;5093314;28;20083;-63